Date,TemperatureHighF,TemperatureAvgF,TemperatureLowF,DewpointHighF,DewpointAvgF,DewpointLowF,HumidityHigh,HumidityAvg,HumidityLow,PressureMaxIn,PressureMinIn,WindSpeedMaxMPH,WindSpeedAvgMPH,GustSpeedMaxMPH,PrecipitationSumIn
2013-7-1,77,73,72,50,47,46,40,40,39,30.04,29.89,20,3,20,0.17
2013-7-2,79,74,72,52,48,47,40,39,38,30.15,30.03,16,4,16,0.03
2013-7-3,84,75,70,55,49,44,40,39,37,30.20,30.14,19,3,19,0.03
2013-7-4,88,78,73,58,51,47,40,39,36,30.20,30.11,19,3,19,0.00
2013-7-5,90,80,73,59,52,47,40,38,36,30.15,30.05,18,3,18,0.00
2013-7-6,91,82,74,60,54,47,39,38,36,30.07,29.97,14,2,15,0.00
2013-7-7,91,82,72,61,53,47,40,38,35,30.00,29.87,16,2,16,0.00
2013-7-8,88,79,72,57,51,45,40,38,35,29.99,29.87,18,2,18,0.00
2013-7-9,84,75,70,55,48,44,40,39,36,30.04,29.98,12,1,12,0.01
2013-7-10,73,73,73,48,47,47,40,40,40,30.00,29.95,5,0,5,0.00
2013-7-11,79,75,70,52,49,45,40,39,38,29.87,29.76,4,1,17,0.56
2013-7-12,80,73,0,51,46,42,40,37,37,30.10,29.87,17,3,17,0.00
2013-7-13,79,72,67,51,46,42,40,39,38,30.26,30.10,10,1,10,0.00
2013-7-14,88,79,72,58,52,46,40,39,36,30.27,30.18,14,2,15,0.02
2013-7-15,94,82,72,62,54,46,40,38,35,30.18,30.08,13,1,16,0.00
2013-7-16,94,82,72,61,54,46,40,38,34,30.12,30.07,12,1,12,0.00
2013-7-17,90,80,71,59,52,46,40,38,36,30.15,30.02,12,2,12,0.00
2013-7-18,97,84,73,65,55,47,40,38,35,30.03,29.92,13,1,13,0.00
2013-7-19,95,83,75,64,55,49,40,38,35,29.93,29.74,19,3,19,0.00
2013-7-20,90,81,73,60,53,48,40,38,36,29.80,29.65,26,3,26,0.10
2013-7-21,83,74,68,53,47,42,40,38,35,29.94,29.78,10,1,10,0.02
2013-7-22,80,73,68,52,47,43,40,39,37,29.94,29.80,12,1,12,0.00
2013-7-23,85,76,72,56,49,46,40,39,36,29.82,29.53,18,2,18,0.42
2013-7-24,83,76,69,54,48,42,40,38,36,29.87,29.55,12,1,12,0.03
2013-7-25,71,61,58,42,36,33,40,39,37,30.02,29.86,14,2,15,1.82
2013-7-26,63,61,60,38,36,35,40,40,40,29.99,29.91,11,1,11,0.33
2013-7-27,80,72,64,51,45,39,40,38,35,30.01,29.95,5,2,16,0.01
2013-7-28,80,73,66,51,46,41,40,38,36,29.95,29.90,5,1,14,0.00
2013-7-29,84,77,65,55,50,39,40,38,37,30.02,29.91,14,2,14,0.00
2013-7-30,82,71,61,52,43,36,40,37,35,30.09,30.01,16,1,16,0.00
2013-7-31,79,69,59,50,43,35,40,38,35,30.09,30.00,12,2,18,0.00